sensor_id;sensor_type;location;lat;lon;timestamp;pressure;altitude;pressure_sealevel;temperature;humidity
11440;BME280;5776;51.814;4.510;2023-03-19T00:01:47;101090.13;;;11.31;100.00
11440;BME280;5776;51.814;4.510;2023-03-19T00:04:13;101085.00;;;11.29;100.00
11440;BME280;5776;51.814;4.510;2023-03-19T00:06:40;101088.56;;;11.24;100.00
11440;BME280;5776;51.814;4.510;2023-03-19T00:09:06;101094.81;;;11.25;100.00
11440;BME280;5776;51.814;4.510;2023-03-19T00:11:32;101099.44;;;11.24;100.00
11440;BME280;5776;51.814;4.510;2023-03-19T00:13:59;101105.16;;;11.23;100.00
11440;BME280;5776;51.814;4.510;2023-03-19T00:16:25;101098.63;;;11.24;100.00
11440;BME280;5776;51.814;4.510;2023-03-19T00:18:51;101104.34;;;11.22;100.00
11440;BME280;5776;51.814;4.510;2023-03-19T00:21:18;101102.22;;;11.19;100.00
11440;BME280;5776;51.814;4.510;2023-03-19T00:23:44;101103.00;;;11.20;100.00
11440;BME280;5776;51.814;4.510;2023-03-19T00:26:10;101111.16;;;11.20;100.00
11440;BME280;5776;51.814;4.510;2023-03-19T00:28:36;101115.81;;;11.19;100.00
11440;BME280;5776;51.814;4.510;2023-03-19T00:31:14;101113.66;;;11.16;100.00
11440;BME280;5776;51.814;4.510;2023-03-19T00:33:40;101120.47;;;11.14;100.00
11440;BME280;5776;51.814;4.510;2023-03-19T00:36:08;101116.94;;;11.13;100.00
11440;BME280;5776;51.814;4.510;2023-03-19T00:38:34;101122.09;;;11.15;100.00
11440;BME280;5776;51.814;4.510;2023-03-19T00:41:01;101118.84;;;11.13;100.00
11440;BME280;5776;51.814;4.510;2023-03-19T00:43:28;101123.47;;;11.12;100.00
11440;BME280;5776;51.814;4.510;2023-03-19T00:45:54;101124.84;;;11.10;100.00
11440;BME280;5776;51.814;4.510;2023-03-19T00:48:20;101122.66;;;11.12;100.00
11440;BME280;5776;51.814;4.510;2023-03-19T00:50:47;101129.19;;;11.11;100.00
11440;BME280;5776;51.814;4.510;2023-03-19T00:53:13;101127.28;;;11.11;100.00
11440;BME280;5776;51.814;4.510;2023-03-19T00:55:39;101127.53;;;11.15;100.00
11440;BME280;5776;51.814;4.510;2023-03-19T00:58:05;101127.53;;;11.15;100.00
11440;BME280;5776;51.814;4.510;2023-03-19T01:00:33;101129.72;;;11.13;100.00
11440;BME280;5776;51.814;4.510;2023-03-19T01:02:59;101124.28;;;11.13;100.00
11440;BME280;5776;51.814;4.510;2023-03-19T01:05:25;101122.94;;;11.10;100.00
11440;BME280;5776;51.814;4.510;2023-03-19T01:07:51;101126.75;;;11.09;100.00
11440;BME280;5776;51.814;4.510;2023-03-19T01:10:22;101124.63;;;11.06;100.00
11440;BME280;5776;51.814;4.510;2023-03-19T01:12:49;101119.72;;;11.03;100.00
11440;BME280;5776;51.814;4.510;2023-03-19T01:15:16;101114.28;;;11.03;100.00
11440;BME280;5776;51.814;4.510;2023-03-19T01:17:42;101122.75;;;11.01;100.00
11440;BME280;5776;51.814;4.510;2023-03-19T01:20:09;101123.81;;;11.00;100.00
11440;BME280;5776;51.814;4.510;2023-03-19T01:22:39;101114.63;;;10.96;100.00
11440;BME280;5776;51.814;4.510;2023-03-19T01:25:07;101123.88;;;10.95;100.00
11440;BME280;5776;51.814;4.510;2023-03-19T01:27:33;101122.78;;;10.96;100.00
11440;BME280;5776;51.814;4.510;2023-03-19T01:29:59;101126.06;;;10.93;100.00
11440;BME280;5776;51.814;4.510;2023-03-19T01:32:25;101134.50;;;10.92;100.00
11440;BME280;5776;51.814;4.510;2023-03-19T01:34:50;101128.25;;;10.91;100.00
11440;BME280;5776;51.814;4.510;2023-03-19T01:37:19;101135.31;;;10.92;100.00
11440;BME280;5776;51.814;4.510;2023-03-19T01:39:45;101129.06;;;10.92;100.00
11440;BME280;5776;51.814;4.510;2023-03-19T01:42:12;101139.94;;;10.92;100.00
11440;BME280;5776;51.814;4.510;2023-03-19T01:44:39;101130.69;;;10.93;100.00
11440;BME280;5776;51.814;4.510;2023-03-19T01:47:16;101136.91;;;10.93;100.00
11440;BME280;5776;51.814;4.510;2023-03-19T01:49:49;101141.84;;;10.91;100.00
11440;BME280;5776;51.814;4.510;2023-03-19T01:52:16;101140.22;;;10.90;100.00
11440;BME280;5776;51.814;4.510;2023-03-19T01:54:43;101141.31;;;10.89;100.00
11440;BME280;5776;51.814;4.510;2023-03-19T01:57:11;101148.38;;;10.90;100.00
11440;BME280;5776;51.814;4.510;2023-03-19T01:59:42;101136.97;;;10.88;100.00
11440;BME280;5776;51.814;4.510;2023-03-19T02:04:40;101135.34;;;10.87;100.00
11440;BME280;5776;51.814;4.510;2023-03-19T02:07:08;101130.19;;;10.86;100.00
11440;BME280;5776;51.814;4.510;2023-03-19T02:09:35;101130.47;;;10.84;100.00
11440;BME280;5776;51.814;4.510;2023-03-19T02:12:01;101141.63;;;10.82;100.00
11440;BME280;5776;51.814;4.510;2023-03-19T02:14:28;101147.88;;;10.83;100.00
11440;BME280;5776;51.814;4.510;2023-03-19T02:16:54;101147.88;;;10.83;100.00
11440;BME280;5776;51.814;4.510;2023-03-19T02:19:42;101153.28;;;10.83;100.00
11440;BME280;5776;51.814;4.510;2023-03-19T02:22:13;101145.16;;;10.83;100.00
11440;BME280;5776;51.814;4.510;2023-03-19T02:24:53;101138.91;;;10.82;100.00
11440;BME280;5776;51.814;4.510;2023-03-19T02:27:21;101144.38;;;10.77;100.00
11440;BME280;5776;51.814;4.510;2023-03-19T02:29:47;101149.25;;;10.80;100.00
11440;BME280;5776;51.814;4.510;2023-03-19T02:32:13;101142.19;;;10.79;100.00
11440;BME280;5776;51.814;4.510;2023-03-19T02:34:41;101140.84;;;10.77;100.00
11440;BME280;5776;51.814;4.510;2023-03-19T02:37:13;101138.94;;;10.77;100.00
11440;BME280;5776;51.814;4.510;2023-03-19T02:42:20;101141.97;;;10.76;100.00
11440;BME280;5776;51.814;4.510;2023-03-19T02:44:47;101136.78;;;10.74;100.00
11440;BME280;5776;51.814;4.510;2023-03-19T02:47:14;101140.88;;;10.72;100.00
11440;BME280;5776;51.814;4.510;2023-03-19T02:49:40;101140.09;;;10.71;100.00
11440;BME280;5776;51.814;4.510;2023-03-19T02:52:06;101145.78;;;10.70;100.00
11440;BME280;5776;51.814;4.510;2023-03-19T02:54:32;101149.88;;;10.67;100.00
11440;BME280;5776;51.814;4.510;2023-03-19T02:56:58;101149.06;;;10.67;100.00
11440;BME280;5776;51.814;4.510;2023-03-19T02:59:24;101146.38;;;10.62;100.00
11440;BME280;5776;51.814;4.510;2023-03-19T03:01:50;101149.38;;;10.60;100.00
11440;BME280;5776;51.814;4.510;2023-03-19T03:04:16;101143.13;;;10.59;100.00
11440;BME280;5776;51.814;4.510;2023-03-19T03:06:42;101144.75;;;10.60;100.00
11440;BME280;5776;51.814;4.510;2023-03-19T03:09:09;101145.31;;;10.57;100.00
11440;BME280;5776;51.814;4.510;2023-03-19T03:11:36;101149.13;;;10.56;100.00
11440;BME280;5776;51.814;4.510;2023-03-19T03:14:02;101140.44;;;10.54;100.00
11440;BME280;5776;51.814;4.510;2023-03-19T03:16:28;101145.06;;;10.54;100.00
11440;BME280;5776;51.814;4.510;2023-03-19T03:18:53;101144.25;;;10.53;100.00
11440;BME280;5776;51.814;4.510;2023-03-19T03:21:19;101147.25;;;10.52;100.00
11440;BME280;5776;51.814;4.510;2023-03-19T03:23:46;101147.81;;;10.49;100.00
11440;BME280;5776;51.814;4.510;2023-03-19T03:26:13;101146.16;;;10.48;100.00
11440;BME280;5776;51.814;4.510;2023-03-19T03:28:40;101156.19;;;10.52;100.00
11440;BME280;5776;51.814;4.510;2023-03-19T03:31:06;101151.34;;;10.49;100.00
11440;BME280;5776;51.814;4.510;2023-03-19T03:33:32;101142.13;;;10.45;100.00
11440;BME280;5776;51.814;4.510;2023-03-19T03:35:58;101148.06;;;10.47;100.00
11440;BME280;5776;51.814;4.510;2023-03-19T03:38:24;101145.38;;;10.47;100.00
11440;BME280;5776;51.814;4.510;2023-03-19T03:40:50;101137.50;;;10.46;100.00
11440;BME280;5776;51.814;4.510;2023-03-19T03:43:20;101142.44;;;10.38;100.00
11440;BME280;5776;51.814;4.510;2023-03-19T03:45:46;101150.81;;;10.42;100.00
11440;BME280;5776;51.814;4.510;2023-03-19T03:48:13;101145.97;;;10.39;100.00
11440;BME280;5776;51.814;4.510;2023-03-19T03:50:39;101146.22;;;10.37;100.00
11440;BME280;5776;51.814;4.510;2023-03-19T03:53:05;101143.50;;;10.37;100.00
11440;BME280;5776;51.814;4.510;2023-03-19T03:55:31;101140.00;;;10.37;100.00
11440;BME280;5776;51.814;4.510;2023-03-19T03:57:57;101143.53;;;10.32;100.00
11440;BME280;5776;51.814;4.510;2023-03-19T04:00:23;101149.53;;;10.19;100.00
11440;BME280;5776;51.814;4.510;2023-03-19T04:02:50;101143.81;;;10.26;100.00
11440;BME280;5776;51.814;4.510;2023-03-19T04:05:16;101157.41;;;10.26;100.00
11440;BME280;5776;51.814;4.510;2023-03-19T04:07:42;101151.66;;;10.27;100.00
11440;BME280;5776;51.814;4.510;2023-03-19T04:10:10;101167.97;;;10.27;100.00
11440;BME280;5776;51.814;4.510;2023-03-19T04:12:36;101167.97;;;10.27;100.00
11440;BME280;5776;51.814;4.510;2023-03-19T04:15:03;101163.66;;;10.21;100.00
11440;BME280;5776;51.814;4.510;2023-03-19T04:17:30;101162.00;;;10.20;100.00
11440;BME280;5776;51.814;4.510;2023-03-19T04:19:55;101160.09;;;10.21;100.00
11440;BME280;5776;51.814;4.510;2023-03-19T04:22:21;101160.09;;;10.21;100.00
11440;BME280;5776;51.814;4.510;2023-03-19T04:24:47;101168.25;;;10.21;100.00
11440;BME280;5776;51.814;4.510;2023-03-19T04:27:14;101172.31;;;10.23;100.00
11440;BME280;5776;51.814;4.510;2023-03-19T04:29:39;101169.34;;;10.20;100.00
11440;BME280;5776;51.814;4.510;2023-03-19T04:32:06;101170.69;;;10.22;100.00
11440;BME280;5776;51.814;4.510;2023-03-19T04:34:32;101178.59;;;10.19;100.00
11440;BME280;5776;51.814;4.510;2023-03-19T04:36:57;101178.59;;;10.19;100.00
11440;BME280;5776;51.814;4.510;2023-03-19T04:39:24;101184.56;;;10.15;100.00
11440;BME280;5776;51.814;4.510;2023-03-19T04:41:50;101184.03;;;10.19;100.00
11440;BME280;5776;51.814;4.510;2023-03-19T04:44:16;101187.25;;;10.15;100.00
11440;BME280;5776;51.814;4.510;2023-03-19T04:46:42;101191.09;;;10.14;100.00
11440;BME280;5776;51.814;4.510;2023-03-19T04:49:12;101191.09;;;10.14;100.00
11440;BME280;5776;51.814;4.510;2023-03-19T04:51:38;101185.13;;;10.12;100.00
11440;BME280;5776;51.814;4.510;2023-03-19T04:54:04;101191.66;;;10.06;100.00
11440;BME280;5776;51.814;4.510;2023-03-19T04:56:31;101187.28;;;10.05;100.00
11440;BME280;5776;51.814;4.510;2023-03-19T04:58:56;101193.00;;;10.09;100.00
11440;BME280;5776;51.814;4.510;2023-03-19T05:01:23;101191.66;;;10.06;100.00
11440;BME280;5776;51.814;4.510;2023-03-19T05:03:49;101190.56;;;10.07;100.00
11440;BME280;5776;51.814;4.510;2023-03-19T05:06:15;101197.66;;;10.03;100.00
11440;BME280;5776;51.814;4.510;2023-03-19T05:08:42;101196.81;;;10.03;100.00
11440;BME280;5776;51.814;4.510;2023-03-19T05:11:08;101201.72;;;10.01;100.00
11440;BME280;5776;51.814;4.510;2023-03-19T05:13:34;101205.78;;;10.03;100.00
11440;BME280;5776;51.814;4.510;2023-03-19T05:15:59;101202.53;;;10.01;100.00
11440;BME280;5776;51.814;4.510;2023-03-19T05:18:26;101214.19;;;10.02;100.00
11440;BME280;5776;51.814;4.510;2023-03-19T05:20:52;101218.81;;;9.96;100.00
11440;BME280;5776;51.814;4.510;2023-03-19T05:23:19;101224.25;;;9.96;100.00
11440;BME280;5776;51.814;4.510;2023-03-19T05:25:46;101230.72;;;10.00;100.00
11440;BME280;5776;51.814;4.510;2023-03-19T05:28:12;101232.91;;;10.03;100.00
11440;BME280;5776;51.814;4.510;2023-03-19T05:30:38;101232.38;;;9.96;100.00
11440;BME280;5776;51.814;4.510;2023-03-19T05:33:04;101234.00;;;9.97;100.00
11440;BME280;5776;51.814;4.510;2023-03-19T05:35:31;101233.19;;;9.91;100.00
11440;BME280;5776;51.814;4.510;2023-03-19T05:37:57;101243.75;;;9.93;100.00
11440;BME280;5776;51.814;4.510;2023-03-19T05:40:23;101241.34;;;9.91;100.00
11440;BME280;5776;51.814;4.510;2023-03-19T05:42:50;101255.16;;;9.90;100.00
11440;BME280;5776;51.814;4.510;2023-03-19T05:45:16;101249.75;;;9.90;100.00
11440;BME280;5776;51.814;4.510;2023-03-19T05:47:42;101254.91;;;9.86;100.00
11440;BME280;5776;51.814;4.510;2023-03-19T05:50:10;101256.81;;;9.86;100.00
11440;BME280;5776;51.814;4.510;2023-03-19T05:52:36;101260.06;;;9.83;100.00
11440;BME280;5776;51.814;4.510;2023-03-19T05:55:02;101260.34;;;9.81;100.00
11440;BME280;5776;51.814;4.510;2023-03-19T05:57:29;101267.13;;;9.84;100.00
11440;BME280;5776;51.814;4.510;2023-03-19T05:59:55;101262.50;;;9.84;100.00
11440;BME280;5776;51.814;4.510;2023-03-19T06:02:22;101266.03;;;9.80;100.00
11440;BME280;5776;51.814;4.510;2023-03-19T06:04:48;101261.16;;;9.77;100.00
11440;BME280;5776;51.814;4.510;2023-03-19T06:07:14;101263.31;;;9.74;100.00
11440;BME280;5776;51.814;4.510;2023-03-19T06:09:40;101269.84;;;9.79;100.00
11440;BME280;5776;51.814;4.510;2023-03-19T06:12:07;101261.16;;;9.82;100.00
11440;BME280;5776;51.814;4.510;2023-03-19T06:14:33;101263.31;;;9.85;100.00
11440;BME280;5776;51.814;4.510;2023-03-19T06:16:59;101256.28;;;9.89;100.00
11440;BME280;5776;51.814;4.510;2023-03-19T06:19:24;101262.25;;;9.76;100.00
11440;BME280;5776;51.814;4.510;2023-03-19T06:21:50;101263.06;;;9.81;100.00
11440;BME280;5776;51.814;4.510;2023-03-19T06:24:17;101263.88;;;9.77;100.00
11440;BME280;5776;51.814;4.510;2023-03-19T06:26:43;101272.00;;;9.77;100.00
11440;BME280;5776;51.814;4.510;2023-03-19T06:29:09;101273.63;;;9.67;100.00
11440;BME280;5776;51.814;4.510;2023-03-19T06:31:35;101269.28;;;9.82;100.00
11440;BME280;5776;51.814;4.510;2023-03-19T06:34:03;101283.94;;;9.91;100.00
11440;BME280;5776;51.814;4.510;2023-03-19T06:36:29;101293.97;;;9.95;100.00
11440;BME280;5776;51.814;4.510;2023-03-19T06:38:55;101286.34;;;9.98;100.00
11440;BME280;5776;51.814;4.510;2023-03-19T06:41:21;101291.53;;;9.99;100.00
11440;BME280;5776;51.814;4.510;2023-03-19T06:43:49;101296.69;;;10.01;100.00
11440;BME280;5776;51.814;4.510;2023-03-19T06:46:15;101300.22;;;10.01;100.00
11440;BME280;5776;51.814;4.510;2023-03-19T06:48:41;101301.03;;;10.02;100.00
11440;BME280;5776;51.814;4.510;2023-03-19T06:51:07;101307.25;;;10.02;100.00
11440;BME280;5776;51.814;4.510;2023-03-19T06:53:33;101294.78;;;10.01;100.00
11440;BME280;5776;51.814;4.510;2023-03-19T06:55:59;101299.13;;;10.02;100.00
11440;BME280;5776;51.814;4.510;2023-03-19T06:58:25;101310.78;;;10.03;100.00
11440;BME280;5776;51.814;4.510;2023-03-19T07:00:51;101309.72;;;10.04;100.00
11440;BME280;5776;51.814;4.510;2023-03-19T07:03:17;101310.53;;;10.04;100.00
11440;BME280;5776;51.814;4.510;2023-03-19T07:05:43;101318.66;;;10.09;100.00
11440;BME280;5776;51.814;4.510;2023-03-19T07:08:09;101322.47;;;10.08;100.00
11440;BME280;5776;51.814;4.510;2023-03-19T07:10:37;101320.00;;;10.07;100.00
11440;BME280;5776;51.814;4.510;2023-03-19T07:13:04;101323.00;;;10.05;100.00
11440;BME280;5776;51.814;4.510;2023-03-19T07:15:30;101312.69;;;10.02;100.00
11440;BME280;5776;51.814;4.510;2023-03-19T07:17:56;101311.88;;;10.02;100.00
11440;BME280;5776;51.814;4.510;2023-03-19T07:20:22;101317.03;;;10.03;100.00
11440;BME280;5776;51.814;4.510;2023-03-19T07:22:51;101318.91;;;10.03;100.00
11440;BME280;5776;51.814;4.510;2023-03-19T07:25:17;101327.06;;;10.03;100.00
11440;BME280;5776;51.814;4.510;2023-03-19T07:27:44;101341.19;;;10.05;100.00
11440;BME280;5776;51.814;4.510;2023-03-19T07:30:10;101345.25;;;10.02;100.00
11440;BME280;5776;51.814;4.510;2023-03-19T07:32:38;101345.53;;;10.01;100.00
11440;BME280;5776;51.814;4.510;2023-03-19T07:35:05;101343.63;;;10.01;100.00
11440;BME280;5776;51.814;4.510;2023-03-19T07:37:32;101350.69;;;10.02;100.00
11440;BME280;5776;51.814;4.510;2023-03-19T07:39:58;101345.25;;;10.02;100.00
11440;BME280;5776;51.814;4.510;2023-03-19T07:42:24;101344.44;;;10.02;100.00
11440;BME280;5776;51.814;4.510;2023-03-19T07:44:50;101346.34;;;10.01;100.00
11440;BME280;5776;51.814;4.510;2023-03-19T07:47:16;101341.44;;;9.62;100.00
11440;BME280;5776;51.814;4.510;2023-03-19T07:49:42;101347.38;;;9.54;100.00
11440;BME280;5776;51.814;4.510;2023-03-19T07:52:08;101356.09;;;9.77;100.00
11440;BME280;5776;51.814;4.510;2023-03-19T07:54:34;101353.94;;;9.89;100.00
11440;BME280;5776;51.814;4.510;2023-03-19T07:57:01;101349.31;;;9.94;100.00
11440;BME280;5776;51.814;4.510;2023-03-19T07:59:27;101361.53;;;9.97;100.00
11440;BME280;5776;51.814;4.510;2023-03-19T08:01:53;101362.09;;;9.99;100.00
11440;BME280;5776;51.814;4.510;2023-03-19T08:04:19;101365.06;;;9.98;100.00
11440;BME280;5776;51.814;4.510;2023-03-19T08:06:45;101370.47;;;9.98;100.00
11440;BME280;5776;51.814;4.510;2023-03-19T08:09:11;101376.19;;;10.01;100.00
11440;BME280;5776;51.814;4.510;2023-03-19T08:11:38;101372.69;;;10.01;100.00
11440;BME280;5776;51.814;4.510;2023-03-19T08:14:03;101382.97;;;10.04;100.00
11440;BME280;5776;51.814;4.510;2023-03-19T08:16:29;101374.03;;;10.03;100.00
11440;BME280;5776;51.814;4.510;2023-03-19T08:18:55;101385.69;;;10.04;100.00
11440;BME280;5776;51.814;4.510;2023-03-19T08:21:21;101378.91;;;10.06;100.00
11440;BME280;5776;51.814;4.510;2023-03-19T08:23:47;101380.53;;;10.02;100.00
11440;BME280;5776;51.814;4.510;2023-03-19T08:26:13;101388.97;;;10.01;100.00
11440;BME280;5776;51.814;4.510;2023-03-19T08:28:39;101385.97;;;10.02;100.00
11440;BME280;5776;51.814;4.510;2023-03-19T08:31:09;101385.97;;;10.02;100.00
11440;BME280;5776;51.814;4.510;2023-03-19T08:33:36;101381.63;;;10.06;100.00
11440;BME280;5776;51.814;4.510;2023-03-19T08:36:10;101384.59;;;10.15;100.00
11440;BME280;5776;51.814;4.510;2023-03-19T08:38:37;101380.53;;;10.12;100.00
11440;BME280;5776;51.814;4.510;2023-03-19T08:41:03;101380.53;;;10.12;100.00
11440;BME280;5776;51.814;4.510;2023-03-19T08:43:32;101390.84;;;10.15;100.00
11440;BME280;5776;51.814;4.510;2023-03-19T08:45:59;101391.69;;;10.11;100.00
11440;BME280;5776;51.814;4.510;2023-03-19T08:48:26;101394.38;;;10.11;100.00
11440;BME280;5776;51.814;4.510;2023-03-19T08:50:58;101395.75;;;10.08;100.00
11440;BME280;5776;51.814;4.510;2023-03-19T08:53:24;101396.00;;;10.07;100.00
11440;BME280;5776;51.814;4.510;2023-03-19T08:55:58;101394.38;;;10.06;100.00
11440;BME280;5776;51.814;4.510;2023-03-19T08:58:26;101404.97;;;10.07;100.00
11440;BME280;5776;51.814;4.510;2023-03-19T09:00:59;101404.41;;;10.05;100.00
11440;BME280;5776;51.814;4.510;2023-03-19T09:03:26;101402.53;;;10.06;100.00
11440;BME280;5776;51.814;4.510;2023-03-19T09:05:52;101395.75;;;10.03;100.00
11440;BME280;5776;51.814;4.510;2023-03-19T09:08:17;101412.53;;;10.05;100.00
11440;BME280;5776;51.814;4.510;2023-03-19T09:10:43;101410.66;;;10.06;100.00
11440;BME280;5776;51.814;4.510;2023-03-19T09:13:09;101419.88;;;10.05;100.00
11440;BME280;5776;51.814;4.510;2023-03-19T09:15:35;101423.41;;;10.05;100.00
11440;BME280;5776;51.814;4.510;2023-03-19T09:18:02;101420.69;;;10.05;100.00
11440;BME280;5776;51.814;4.510;2023-03-19T09:20:28;101420.69;;;10.05;100.00
11440;BME280;5776;51.814;4.510;2023-03-19T09:22:53;101424.25;;;10.06;100.00
11440;BME280;5776;51.814;4.510;2023-03-19T09:25:19;101429.38;;;10.07;100.00
11440;BME280;5776;51.814;4.510;2023-03-19T09:27:45;101435.63;;;10.08;100.00
11440;BME280;5776;51.814;4.510;2023-03-19T09:30:11;101438.63;;;10.06;100.00
11440;BME280;5776;51.814;4.510;2023-03-19T09:32:38;101443.25;;;10.06;100.00
11440;BME280;5776;51.814;4.510;2023-03-19T09:35:04;101444.06;;;10.06;100.00
11440;BME280;5776;51.814;4.510;2023-03-19T09:37:30;101449.47;;;10.06;100.00
11440;BME280;5776;51.814;4.510;2023-03-19T09:39:56;101453.00;;;10.07;100.00
11440;BME280;5776;51.814;4.510;2023-03-19T09:42:48;101454.63;;;10.08;100.00
11440;BME280;5776;51.814;4.510;2023-03-19T09:45:19;101459.78;;;10.09;100.00
11440;BME280;5776;51.814;4.510;2023-03-19T09:47:48;101459.78;;;10.09;100.00
11440;BME280;5776;51.814;4.510;2023-03-19T09:50:18;101471.44;;;10.10;100.00
11440;BME280;5776;51.814;4.510;2023-03-19T09:52:50;101472.25;;;10.10;100.00
11440;BME280;5776;51.814;4.510;2023-03-19T09:57:57;101472.25;;;10.10;100.00
11440;BME280;5776;51.814;4.510;2023-03-19T10:00:26;101477.69;;;10.10;100.00
11440;BME280;5776;51.814;4.510;2023-03-19T10:03:00;101478.53;;;10.11;100.00
11440;BME280;5776;51.814;4.510;2023-03-19T10:05:55;101479.34;;;10.11;100.00
11440;BME280;5776;51.814;4.510;2023-03-19T10:14:11;101490.19;;;10.11;100.00
11440;BME280;5776;51.814;4.510;2023-03-19T10:16:44;101490.19;;;10.11;100.00
11440;BME280;5776;51.814;4.510;2023-03-19T10:19:15;101495.88;;;10.10;100.00
11440;BME280;5776;51.814;4.510;2023-03-19T10:21:53;101493.97;;;10.10;100.00
11440;BME280;5776;51.814;4.510;2023-03-19T10:24:27;101498.34;;;10.11;100.00
11440;BME280;5776;51.814;4.510;2023-03-19T10:27:12;101502.66;;;10.12;100.00
11440;BME280;5776;51.814;4.510;2023-03-19T10:29:38;101500.75;;;10.13;100.00
11440;BME280;5776;51.814;4.510;2023-03-19T10:34:57;101501.06;;;10.16;100.00
11440;BME280;5776;51.814;4.510;2023-03-19T10:37:27;101501.59;;;10.19;100.00
11440;BME280;5776;51.814;4.510;2023-03-19T10:39:58;101512.47;;;10.24;100.00
11440;BME280;5776;51.814;4.510;2023-03-19T10:42:52;101516.81;;;10.25;100.00
11440;BME280;5776;51.814;4.510;2023-03-19T10:45:42;101516.53;;;10.21;100.00
11440;BME280;5776;51.814;4.510;2023-03-19T10:48:14;101523.84;;;10.21;100.00
11440;BME280;5776;51.814;4.510;2023-03-19T10:50:54;101526.03;;;10.19;100.00
11440;BME280;5776;51.814;4.510;2023-03-19T10:58:28;101522.47;;;10.18;100.00
11440;BME280;5776;51.814;4.510;2023-03-19T11:01:03;101518.72;;;10.19;100.00
11440;BME280;5776;51.814;4.510;2023-03-19T11:03:38;101524.94;;;10.20;100.00
11440;BME280;5776;51.814;4.510;2023-03-19T11:06:15;101527.66;;;10.20;100.00
11440;BME280;5776;51.814;4.510;2023-03-19T11:08:51;101532.84;;;10.21;100.00
11440;BME280;5776;51.814;4.510;2023-03-19T11:14:23;101535.56;;;10.26;100.00
11440;BME280;5776;51.814;4.510;2023-03-19T11:16:55;101527.66;;;10.25;100.00
11440;BME280;5776;51.814;4.510;2023-03-19T11:19:27;101532.28;;;10.24;100.00
11440;BME280;5776;51.814;4.510;2023-03-19T11:22:00;101531.47;;;10.24;100.00
11440;BME280;5776;51.814;4.510;2023-03-19T11:24:31;101532.28;;;10.24;100.00
11440;BME280;5776;51.814;4.510;2023-03-19T11:26:58;101540.19;;;10.26;100.00
11440;BME280;5776;51.814;4.510;2023-03-19T11:29:28;101537.47;;;10.26;100.00
11440;BME280;5776;51.814;4.510;2023-03-19T11:32:16;101536.38;;;10.27;100.00
11440;BME280;5776;51.814;4.510;2023-03-19T11:34:53;101541.78;;;10.27;100.00
11440;BME280;5776;51.814;4.510;2023-03-19T11:40:42;101539.66;;;10.29;100.00
11440;BME280;5776;51.814;4.510;2023-03-19T11:43:28;101541.56;;;10.33;100.00
11440;BME280;5776;51.814;4.510;2023-03-19T11:49:31;101548.38;;;10.41;100.00
11440;BME280;5776;51.814;4.510;2023-03-19T11:54:28;101544.00;;;10.45;100.00
11440;BME280;5776;51.814;4.510;2023-03-19T11:56:59;101538.06;;;10.48;100.00
11440;BME280;5776;51.814;4.510;2023-03-19T12:00:02;101533.72;;;10.47;100.00
11440;BME280;5776;51.814;4.510;2023-03-19T12:05:30;101531.28;;;10.51;100.00
11440;BME280;5776;51.814;4.510;2023-03-19T12:08:16;101542.94;;;10.51;100.00
11440;BME280;5776;51.814;4.510;2023-03-19T12:21:38;101520.13;;;10.68;100.00
11440;BME280;5776;51.814;4.510;2023-03-19T12:24:46;101525.03;;;10.81;100.00
11440;BME280;5776;51.814;4.510;2023-03-19T12:35:55;101534.22;;;11.00;100.00
11440;BME280;5776;51.814;4.510;2023-03-19T12:38:58;101540.22;;;11.08;100.00
11440;BME280;5776;51.814;4.510;2023-03-19T12:41:27;101541.56;;;11.15;100.00
11440;BME280;5776;51.814;4.510;2023-03-19T12:43:56;101541.56;;;11.15;100.00
11440;BME280;5776;51.814;4.510;2023-03-19T12:46:25;101535.31;;;11.15;100.00
11440;BME280;5776;51.814;4.510;2023-03-19T12:51:39;101543.72;;;11.08;100.00
11440;BME280;5776;51.814;4.510;2023-03-19T12:54:28;101543.47;;;11.10;100.00
11440;BME280;5776;51.814;4.510;2023-03-19T12:59:49;101549.16;;;11.18;100.00
11440;BME280;5776;51.814;4.510;2023-03-19T13:02:37;101552.16;;;11.22;100.00
11440;BME280;5776;51.814;4.510;2023-03-19T13:08:18;101561.13;;;11.22;100.00
11440;BME280;5776;51.814;4.510;2023-03-19T13:10:45;101578.25;;;11.18;100.00
11440;BME280;5776;51.814;4.510;2023-03-19T13:13:41;101577.44;;;11.17;100.00
11440;BME280;5776;51.814;4.510;2023-03-19T13:19:04;101589.41;;;11.16;100.00
11440;BME280;5776;51.814;4.510;2023-03-19T13:21:36;101585.88;;;11.16;100.00
11440;BME280;5776;51.814;4.510;2023-03-19T13:24:18;101577.72;;;11.16;100.00
11440;BME280;5776;51.814;4.510;2023-03-19T13:26:47;101576.63;;;11.17;100.00
11440;BME280;5776;51.814;4.510;2023-03-19T13:31:45;101580.44;;;11.16;100.00
11440;BME280;5776;51.814;4.510;2023-03-19T13:34:21;101578.81;;;11.15;100.00
11440;BME280;5776;51.814;4.510;2023-03-19T13:37:06;101586.41;;;11.13;100.00
11440;BME280;5776;51.814;4.510;2023-03-19T13:39:37;101590.22;;;11.12;100.00
11440;BME280;5776;51.814;4.510;2023-03-19T13:44:53;101587.22;;;11.13;100.00
11440;BME280;5776;51.814;4.510;2023-03-19T13:54:53;101605.44;;;11.13;100.00
11440;BME280;5776;51.814;4.510;2023-03-19T13:57:34;101605.75;;;11.11;100.00
11440;BME280;5776;51.814;4.510;2023-03-19T14:03:25;101611.44;;;11.10;100.00
11440;BME280;5776;51.814;4.510;2023-03-19T14:05:55;101614.16;;;11.10;100.00
11440;BME280;5776;51.814;4.510;2023-03-19T14:08:41;101609.81;;;11.09;100.00
11440;BME280;5776;51.814;4.510;2023-03-19T14:11:09;101613.59;;;11.08;100.00
11440;BME280;5776;51.814;4.510;2023-03-19T14:13:42;101621.50;;;11.04;100.00
11440;BME280;5776;51.814;4.510;2023-03-19T14:16:23;101630.47;;;11.05;100.00
11440;BME280;5776;51.814;4.510;2023-03-19T14:18:55;101637.53;;;11.00;100.00
11440;BME280;5776;51.814;4.510;2023-03-19T14:27:01;101629.34;;;10.80;100.00
11440;BME280;5776;51.814;4.510;2023-03-19T14:29:29;101629.91;;;10.77;100.00